sensor_id;sensor_type;location;lat;lon;timestamp;temperature;humidity
15359;DHT22;7779;49.596;11.070;2022-07-29T00:00:08;23.20;40.30
15359;DHT22;7779;49.596;11.070;2022-07-29T00:02:35;23.20;40.30
15359;DHT22;7779;49.596;11.070;2022-07-29T00:05:02;23.20;40.20
15359;DHT22;7779;49.596;11.070;2022-07-29T00:07:29;23.20;40.30
15359;DHT22;7779;49.596;11.070;2022-07-29T00:09:55;23.20;40.20
15359;DHT22;7779;49.596;11.070;2022-07-29T00:12:22;23.20;40.10
15359;DHT22;7779;49.596;11.070;2022-07-29T00:14:49;23.20;40.10
15359;DHT22;7779;49.596;11.070;2022-07-29T00:17:15;23.20;40.10
15359;DHT22;7779;49.596;11.070;2022-07-29T00:19:41;23.20;40.00
15359;DHT22;7779;49.596;11.070;2022-07-29T00:22:07;23.20;40.00
15359;DHT22;7779;49.596;11.070;2022-07-29T00:24:33;23.20;40.00
15359;DHT22;7779;49.596;11.070;2022-07-29T00:26:59;23.20;40.00
15359;DHT22;7779;49.596;11.070;2022-07-29T00:29:25;23.20;40.00
15359;DHT22;7779;49.596;11.070;2022-07-29T00:31:51;23.20;39.90
15359;DHT22;7779;49.596;11.070;2022-07-29T00:34:17;23.20;39.90
15359;DHT22;7779;49.596;11.070;2022-07-29T00:37:01;23.30;40.00
15359;DHT22;7779;49.596;11.070;2022-07-29T00:39:27;23.30;39.90
15359;DHT22;7779;49.596;11.070;2022-07-29T00:41:53;23.20;39.80
15359;DHT22;7779;49.596;11.070;2022-07-29T00:44:19;23.30;39.90
15359;DHT22;7779;49.596;11.070;2022-07-29T00:46:45;23.30;39.90
15359;DHT22;7779;49.596;11.070;2022-07-29T00:49:10;23.30;39.80
15359;DHT22;7779;49.596;11.070;2022-07-29T00:51:37;23.30;39.80
15359;DHT22;7779;49.596;11.070;2022-07-29T00:54:04;23.30;39.80
15359;DHT22;7779;49.596;11.070;2022-07-29T00:56:32;23.30;39.80
15359;DHT22;7779;49.596;11.070;2022-07-29T00:58:59;23.30;39.80
15359;DHT22;7779;49.596;11.070;2022-07-29T01:01:26;23.30;39.80
15359;DHT22;7779;49.596;11.070;2022-07-29T01:03:52;23.30;39.80
15359;DHT22;7779;49.596;11.070;2022-07-29T01:06:19;23.20;39.70
15359;DHT22;7779;49.596;11.070;2022-07-29T01:08:47;23.20;40.30
15359;DHT22;7779;49.596;11.070;2022-07-29T01:11:15;23.30;39.80
15359;DHT22;7779;49.596;11.070;2022-07-29T01:13:43;23.30;39.80
15359;DHT22;7779;49.596;11.070;2022-07-29T01:16:32;23.30;39.80
15359;DHT22;7779;49.596;11.070;2022-07-29T01:19:18;23.30;39.70
15359;DHT22;7779;49.596;11.070;2022-07-29T01:22:01;23.30;39.70
15359;DHT22;7779;49.596;11.070;2022-07-29T01:31:54;23.40;39.70
15359;DHT22;7779;49.596;11.070;2022-07-29T01:37:20;23.40;39.70
15359;DHT22;7779;49.596;11.070;2022-07-29T01:39:49;23.30;39.60
15359;DHT22;7779;49.596;11.070;2022-07-29T01:42:31;23.30;39.60
15359;DHT22;7779;49.596;11.070;2022-07-29T01:45:10;23.30;39.60
15359;DHT22;7779;49.596;11.070;2022-07-29T01:47:50;23.30;39.70
15359;DHT22;7779;49.596;11.070;2022-07-29T01:50:28;23.30;39.80
15359;DHT22;7779;49.596;11.070;2022-07-29T01:53:01;23.30;39.80
15359;DHT22;7779;49.596;11.070;2022-07-29T01:55:34;23.20;39.80
15359;DHT22;7779;49.596;11.070;2022-07-29T01:58:04;23.30;39.90
15359;DHT22;7779;49.596;11.070;2022-07-29T02:00:33;23.20;39.80
15359;DHT22;7779;49.596;11.070;2022-07-29T02:03:07;23.20;39.80
15359;DHT22;7779;49.596;11.070;2022-07-29T02:05:38;23.20;39.90
15359;DHT22;7779;49.596;11.070;2022-07-29T02:08:08;23.10;39.80
15359;DHT22;7779;49.596;11.070;2022-07-29T02:10:37;23.10;39.90
15359;DHT22;7779;49.596;11.070;2022-07-29T02:13:05;23.10;39.90
15359;DHT22;7779;49.596;11.070;2022-07-29T02:15:34;23.00;39.90
15359;DHT22;7779;49.596;11.070;2022-07-29T02:18:11;23.00;39.90
15359;DHT22;7779;49.596;11.070;2022-07-29T02:20:45;22.90;40.10
15359;DHT22;7779;49.596;11.070;2022-07-29T02:23:16;22.90;40.30
15359;DHT22;7779;49.596;11.070;2022-07-29T02:25:48;22.80;40.10
15359;DHT22;7779;49.596;11.070;2022-07-29T02:28:16;22.80;40.30
15359;DHT22;7779;49.596;11.070;2022-07-29T02:30:43;22.70;40.20
15359;DHT22;7779;49.596;11.070;2022-07-29T02:33:13;22.70;40.30
15359;DHT22;7779;49.596;11.070;2022-07-29T02:35:41;22.60;40.50
15359;DHT22;7779;49.596;11.070;2022-07-29T02:38:13;22.60;41.10
15359;DHT22;7779;49.596;11.070;2022-07-29T02:41:01;22.50;40.60
15359;DHT22;7779;49.596;11.070;2022-07-29T02:43:32;22.40;40.60
15359;DHT22;7779;49.596;11.070;2022-07-29T02:46:00;22.40;40.70
15359;DHT22;7779;49.596;11.070;2022-07-29T02:48:55;22.30;40.70
15359;DHT22;7779;49.596;11.070;2022-07-29T02:51:45;22.30;41.20
15359;DHT22;7779;49.596;11.070;2022-07-29T02:54:30;22.20;41.30
15359;DHT22;7779;49.596;11.070;2022-07-29T02:57:05;23.00;41.90
15359;DHT22;7779;49.596;11.070;2022-07-29T02:59:38;22.10;41.10
15359;DHT22;7779;49.596;11.070;2022-07-29T03:02:08;22.00;41.30
15359;DHT22;7779;49.596;11.070;2022-07-29T03:04:36;21.90;41.30
15359;DHT22;7779;49.596;11.070;2022-07-29T03:07:05;21.90;41.50
15359;DHT22;7779;49.596;11.070;2022-07-29T03:09:31;21.80;41.70
15359;DHT22;7779;49.596;11.070;2022-07-29T03:11:59;21.70;41.70
15359;DHT22;7779;49.596;11.070;2022-07-29T03:14:26;21.60;41.80
15359;DHT22;7779;49.596;11.070;2022-07-29T03:16:53;21.50;41.90
15359;DHT22;7779;49.596;11.070;2022-07-29T03:19:20;21.50;42.10
15359;DHT22;7779;49.596;11.070;2022-07-29T03:21:47;21.40;42.30
15359;DHT22;7779;49.596;11.070;2022-07-29T03:24:31;21.30;42.30
15359;DHT22;7779;49.596;11.070;2022-07-29T03:26:58;21.30;43.20
15359;DHT22;7779;49.596;11.070;2022-07-29T03:29:25;21.20;42.70
15359;DHT22;7779;49.596;11.070;2022-07-29T03:31:51;21.10;42.70
15359;DHT22;7779;49.596;11.070;2022-07-29T03:34:17;21.10;42.80
15359;DHT22;7779;49.596;11.070;2022-07-29T03:36:43;21.00;42.90
15359;DHT22;7779;49.596;11.070;2022-07-29T03:39:10;20.90;42.80
15359;DHT22;7779;49.596;11.070;2022-07-29T03:41:40;20.90;42.90
15359;DHT22;7779;49.596;11.070;2022-07-29T03:44:08;20.80;43.00
15359;DHT22;7779;49.596;11.070;2022-07-29T03:46:35;20.70;43.00
15359;DHT22;7779;49.596;11.070;2022-07-29T03:49:05;20.70;43.10
15359;DHT22;7779;49.596;11.070;2022-07-29T03:51:34;20.70;43.30
15359;DHT22;7779;49.596;11.070;2022-07-29T03:54:04;20.60;43.30
15359;DHT22;7779;49.596;11.070;2022-07-29T03:56:34;20.60;43.60
15359;DHT22;7779;49.596;11.070;2022-07-29T03:59:03;20.60;43.60
15359;DHT22;7779;49.596;11.070;2022-07-29T04:01:29;20.60;43.60
15359;DHT22;7779;49.596;11.070;2022-07-29T04:04:00;20.60;43.60
15359;DHT22;7779;49.596;11.070;2022-07-29T04:06:27;20.60;43.70
15359;DHT22;7779;49.596;11.070;2022-07-29T04:08:52;20.60;43.80
15359;DHT22;7779;49.596;11.070;2022-07-29T04:11:19;20.60;43.90
15359;DHT22;7779;49.596;11.070;2022-07-29T04:13:45;20.60;44.00
15359;DHT22;7779;49.596;11.070;2022-07-29T04:16:10;20.50;44.00
15359;DHT22;7779;49.596;11.070;2022-07-29T04:18:36;20.60;44.10
15359;DHT22;7779;49.596;11.070;2022-07-29T04:21:02;20.50;44.10
15359;DHT22;7779;49.596;11.070;2022-07-29T04:23:30;20.50;44.20
15359;DHT22;7779;49.596;11.070;2022-07-29T04:25:58;20.50;44.20
15359;DHT22;7779;49.596;11.070;2022-07-29T04:28:26;20.50;44.30
15359;DHT22;7779;49.596;11.070;2022-07-29T04:30:52;20.50;44.40
15359;DHT22;7779;49.596;11.070;2022-07-29T04:33:18;20.50;44.60
15359;DHT22;7779;49.596;11.070;2022-07-29T04:35:44;20.50;44.70
15359;DHT22;7779;49.596;11.070;2022-07-29T04:38:10;20.50;44.80
15359;DHT22;7779;49.596;11.070;2022-07-29T04:40:35;20.50;45.00
15359;DHT22;7779;49.596;11.070;2022-07-29T04:43:01;20.50;45.20
15359;DHT22;7779;49.596;11.070;2022-07-29T04:45:28;20.40;45.20
15359;DHT22;7779;49.596;11.070;2022-07-29T04:47:54;20.40;45.30
15359;DHT22;7779;49.596;11.070;2022-07-29T04:50:21;20.40;45.50
15359;DHT22;7779;49.596;11.070;2022-07-29T04:52:48;20.40;45.60
15359;DHT22;7779;49.596;11.070;2022-07-29T04:55:14;20.40;45.80
15359;DHT22;7779;49.596;11.070;2022-07-29T04:57:40;20.40;45.90
15359;DHT22;7779;49.596;11.070;2022-07-29T05:00:06;20.40;46.10
15359;DHT22;7779;49.596;11.070;2022-07-29T05:02:32;20.50;46.40
15359;DHT22;7779;49.596;11.070;2022-07-29T05:04:58;20.50;46.50
15359;DHT22;7779;49.596;11.070;2022-07-29T05:07:24;20.60;46.80
15359;DHT22;7779;49.596;11.070;2022-07-29T05:09:50;20.70;46.90
15359;DHT22;7779;49.596;11.070;2022-07-29T05:12:16;20.70;47.00
15359;DHT22;7779;49.596;11.070;2022-07-29T05:14:42;20.80;47.00
15359;DHT22;7779;49.596;11.070;2022-07-29T05:17:07;20.90;47.00
15359;DHT22;7779;49.596;11.070;2022-07-29T05:19:33;21.00;47.00
15359;DHT22;7779;49.596;11.070;2022-07-29T05:21:59;21.10;47.00
15359;DHT22;7779;49.596;11.070;2022-07-29T05:24:25;21.10;46.90
15359;DHT22;7779;49.596;11.070;2022-07-29T05:26:51;21.20;47.10
15359;DHT22;7779;49.596;11.070;2022-07-29T05:29:17;21.30;47.20
15359;DHT22;7779;49.596;11.070;2022-07-29T05:31:43;21.40;47.30
15359;DHT22;7779;49.596;11.070;2022-07-29T05:34:09;21.50;47.40
15359;DHT22;7779;49.596;11.070;2022-07-29T05:36:35;21.50;47.30
15359;DHT22;7779;49.596;11.070;2022-07-29T05:39:00;21.60;47.50
15359;DHT22;7779;49.596;11.070;2022-07-29T05:41:26;21.70;47.60
15359;DHT22;7779;49.596;11.070;2022-07-29T05:43:52;21.90;47.60
15359;DHT22;7779;49.596;11.070;2022-07-29T05:46:18;22.10;47.60
15359;DHT22;7779;49.596;11.070;2022-07-29T05:48:45;22.20;47.40
15359;DHT22;7779;49.596;11.070;2022-07-29T05:51:11;22.40;47.40
15359;DHT22;7779;49.596;11.070;2022-07-29T05:53:36;22.60;47.30
15359;DHT22;7779;49.596;11.070;2022-07-29T05:56:03;22.80;47.20
15359;DHT22;7779;49.596;11.070;2022-07-29T05:58:31;23.10;47.10
15359;DHT22;7779;49.596;11.070;2022-07-29T06:00:56;23.30;46.90
15359;DHT22;7779;49.596;11.070;2022-07-29T06:03:26;23.60;46.70
15359;DHT22;7779;49.596;11.070;2022-07-29T06:05:52;23.80;46.30
15359;DHT22;7779;49.596;11.070;2022-07-29T06:08:18;24.00;46.00
15359;DHT22;7779;49.596;11.070;2022-07-29T06:10:45;24.30;45.70
15359;DHT22;7779;49.596;11.070;2022-07-29T06:13:11;24.50;45.40
15359;DHT22;7779;49.596;11.070;2022-07-29T06:15:38;24.70;45.10
15359;DHT22;7779;49.596;11.070;2022-07-29T06:18:04;25.00;44.80
15359;DHT22;7779;49.596;11.070;2022-07-29T06:20:34;25.20;44.40
15359;DHT22;7779;49.596;11.070;2022-07-29T06:23:00;25.40;44.00
15359;DHT22;7779;49.596;11.070;2022-07-29T06:25:27;25.60;43.70
15359;DHT22;7779;49.596;11.070;2022-07-29T06:27:57;25.70;43.30
15359;DHT22;7779;49.596;11.070;2022-07-29T06:30:23;25.90;43.10
15359;DHT22;7779;49.596;11.070;2022-07-29T06:32:49;26.10;42.90
15359;DHT22;7779;49.596;11.070;2022-07-29T06:35:15;26.20;42.60
15359;DHT22;7779;49.596;11.070;2022-07-29T06:37:41;26.40;42.40
15359;DHT22;7779;49.596;11.070;2022-07-29T06:40:07;26.50;42.20
15359;DHT22;7779;49.596;11.070;2022-07-29T06:42:52;26.60;42.00
15359;DHT22;7779;49.596;11.070;2022-07-29T06:45:18;26.80;41.80
15359;DHT22;7779;49.596;11.070;2022-07-29T06:47:43;26.90;41.60
15359;DHT22;7779;49.596;11.070;2022-07-29T06:50:09;27.00;40.20
15359;DHT22;7779;49.596;11.070;2022-07-29T06:52:38;27.10;41.30
15359;DHT22;7779;49.596;11.070;2022-07-29T06:55:04;27.20;41.10
15359;DHT22;7779;49.596;11.070;2022-07-29T06:57:31;27.30;41.00
15359;DHT22;7779;49.596;11.070;2022-07-29T06:59:57;27.40;40.90
15359;DHT22;7779;49.596;11.070;2022-07-29T07:02:23;27.50;40.70
15359;DHT22;7779;49.596;11.070;2022-07-29T07:04:48;27.60;40.50
15359;DHT22;7779;49.596;11.070;2022-07-29T07:07:14;27.70;40.50
15359;DHT22;7779;49.596;11.070;2022-07-29T07:09:40;27.70;39.40
15359;DHT22;7779;49.596;11.070;2022-07-29T07:12:06;27.80;40.10
15359;DHT22;7779;49.596;11.070;2022-07-29T07:14:32;27.90;39.90
15359;DHT22;7779;49.596;11.070;2022-07-29T07:16:58;27.90;39.90
15359;DHT22;7779;49.596;11.070;2022-07-29T07:19:26;28.00;39.00
15359;DHT22;7779;49.596;11.070;2022-07-29T07:21:55;28.10;39.80
15359;DHT22;7779;49.596;11.070;2022-07-29T07:24:21;28.20;39.50
15359;DHT22;7779;49.596;11.070;2022-07-29T07:26:47;28.20;39.50
15359;DHT22;7779;49.596;11.070;2022-07-29T07:29:13;28.30;39.50
15359;DHT22;7779;49.596;11.070;2022-07-29T07:31:39;28.40;39.40
15359;DHT22;7779;49.596;11.070;2022-07-29T07:34:04;28.40;39.30
15359;DHT22;7779;49.596;11.070;2022-07-29T07:36:30;28.50;39.20
15359;DHT22;7779;49.596;11.070;2022-07-29T07:38:56;28.60;38.40
15359;DHT22;7779;49.596;11.070;2022-07-29T07:41:23;28.60;38.90
15359;DHT22;7779;49.596;11.070;2022-07-29T07:43:48;28.70;38.80
15359;DHT22;7779;49.596;11.070;2022-07-29T07:46:15;28.80;38.60
15359;DHT22;7779;49.596;11.070;2022-07-29T07:48:41;28.90;38.40
15359;DHT22;7779;49.596;11.070;2022-07-29T07:51:07;28.90;38.30
15359;DHT22;7779;49.596;11.070;2022-07-29T07:53:33;28.90;38.10
15359;DHT22;7779;49.596;11.070;2022-07-29T07:56:00;28.90;38.00
15359;DHT22;7779;49.596;11.070;2022-07-29T07:58:26;28.80;37.90
15359;DHT22;7779;49.596;11.070;2022-07-29T08:00:52;28.80;37.90
15359;DHT22;7779;49.596;11.070;2022-07-29T08:03:17;28.70;37.80
15359;DHT22;7779;49.596;11.070;2022-07-29T08:05:43;28.70;37.90
15359;DHT22;7779;49.596;11.070;2022-07-29T08:08:09;28.60;37.90
15359;DHT22;7779;49.596;11.070;2022-07-29T08:10:35;28.50;38.00
15359;DHT22;7779;49.596;11.070;2022-07-29T08:13:23;28.50;38.10
15359;DHT22;7779;49.596;11.070;2022-07-29T08:15:52;28.40;38.20
15359;DHT22;7779;49.596;11.070;2022-07-29T08:18:30;28.40;38.40
15359;DHT22;7779;49.596;11.070;2022-07-29T08:20:57;28.40;37.80
15359;DHT22;7779;49.596;11.070;2022-07-29T08:23:23;28.40;38.60
15359;DHT22;7779;49.596;11.070;2022-07-29T08:25:50;28.50;38.80
15359;DHT22;7779;49.596;11.070;2022-07-29T08:28:16;28.50;38.70
15359;DHT22;7779;49.596;11.070;2022-07-29T08:30:42;28.60;38.70
15359;DHT22;7779;49.596;11.070;2022-07-29T08:33:08;28.60;38.70
15359;DHT22;7779;49.596;11.070;2022-07-29T08:35:34;28.70;38.60
15359;DHT22;7779;49.596;11.070;2022-07-29T08:38:00;28.80;38.70
15359;DHT22;7779;49.596;11.070;2022-07-29T08:40:26;28.90;38.60
15359;DHT22;7779;49.596;11.070;2022-07-29T08:42:52;28.90;38.50
15359;DHT22;7779;49.596;11.070;2022-07-29T08:45:18;29.00;38.60
15359;DHT22;7779;49.596;11.070;2022-07-29T08:47:44;29.20;38.80
15359;DHT22;7779;49.596;11.070;2022-07-29T08:50:11;29.30;38.80
15359;DHT22;7779;49.596;11.070;2022-07-29T08:52:39;29.40;38.70
15359;DHT22;7779;49.596;11.070;2022-07-29T08:55:08;29.60;38.50
15359;DHT22;7779;49.596;11.070;2022-07-29T08:57:36;29.80;38.40
15359;DHT22;7779;49.596;11.070;2022-07-29T09:00:07;30.00;38.30
15359;DHT22;7779;49.596;11.070;2022-07-29T09:02:40;30.10;37.90
15359;DHT22;7779;49.596;11.070;2022-07-29T09:05:10;30.20;37.60
15359;DHT22;7779;49.596;11.070;2022-07-29T09:07:36;30.30;37.40
15359;DHT22;7779;49.596;11.070;2022-07-29T09:10:04;30.30;37.20
15359;DHT22;7779;49.596;11.070;2022-07-29T09:12:31;30.40;37.30
15359;DHT22;7779;49.596;11.070;2022-07-29T09:14:57;30.50;37.20
15359;DHT22;7779;49.596;11.070;2022-07-29T09:17:46;30.50;37.20
15359;DHT22;7779;49.596;11.070;2022-07-29T09:20:21;30.60;36.90
15359;DHT22;7779;49.596;11.070;2022-07-29T09:22:49;30.70;37.20
15359;DHT22;7779;49.596;11.070;2022-07-29T09:25:36;30.80;37.20
15359;DHT22;7779;49.596;11.070;2022-07-29T09:28:11;30.90;36.70
15359;DHT22;7779;49.596;11.070;2022-07-29T09:30:58;31.00;36.90
15359;DHT22;7779;49.596;11.070;2022-07-29T09:33:32;31.10;36.50
15359;DHT22;7779;49.596;11.070;2022-07-29T09:36:08;31.10;36.40
15359;DHT22;7779;49.596;11.070;2022-07-29T09:38:35;31.00;36.20
15359;DHT22;7779;49.596;11.070;2022-07-29T09:41:05;30.90;36.40
15359;DHT22;7779;49.596;11.070;2022-07-29T09:43:33;30.90;36.60
15359;DHT22;7779;49.596;11.070;2022-07-29T09:46:17;30.90;36.80
15359;DHT22;7779;49.596;11.070;2022-07-29T09:48:43;30.90;36.50
15359;DHT22;7779;49.596;11.070;2022-07-29T09:51:19;30.80;37.00
15359;DHT22;7779;49.596;11.070;2022-07-29T09:53:46;30.90;37.00
15359;DHT22;7779;49.596;11.070;2022-07-29T09:56:12;30.80;37.00
15359;DHT22;7779;49.596;11.070;2022-07-29T09:58:39;30.90;37.10
15359;DHT22;7779;49.596;11.070;2022-07-29T10:01:05;30.80;37.00
15359;DHT22;7779;49.596;11.070;2022-07-29T10:03:31;30.80;37.00
15359;DHT22;7779;49.596;11.070;2022-07-29T10:06:11;30.80;37.10
15359;DHT22;7779;49.596;11.070;2022-07-29T10:08:41;30.70;37.30
15359;DHT22;7779;49.596;11.070;2022-07-29T10:11:13;30.80;37.50
15359;DHT22;7779;49.596;11.070;2022-07-29T10:13:45;30.70;37.50
15359;DHT22;7779;49.596;11.070;2022-07-29T10:16:12;30.80;37.60
15359;DHT22;7779;49.596;11.070;2022-07-29T10:18:41;30.70;37.60
15359;DHT22;7779;49.596;11.070;2022-07-29T10:21:09;30.70;37.60
15359;DHT22;7779;49.596;11.070;2022-07-29T10:23:36;30.80;37.20
15359;DHT22;7779;49.596;11.070;2022-07-29T10:26:03;30.80;37.80
15359;DHT22;7779;49.596;11.070;2022-07-29T10:28:32;30.90;38.00
15359;DHT22;7779;49.596;11.070;2022-07-29T10:31:05;31.00;38.10
15359;DHT22;7779;49.596;11.070;2022-07-29T10:36:49;31.10;38.20
15359;DHT22;7779;49.596;11.070;2022-07-29T10:39:56;31.20;37.90
15359;DHT22;7779;49.596;11.070;2022-07-29T10:43:19;31.30;38.10
15359;DHT22;7779;49.596;11.070;2022-07-29T10:45:49;31.40;38.20
15359;DHT22;7779;49.596;11.070;2022-07-29T10:48:22;31.50;38.20
15359;DHT22;7779;49.596;11.070;2022-07-29T10:51:02;31.50;38.10
15359;DHT22;7779;49.596;11.070;2022-07-29T10:53:51;31.60;38.10
15359;DHT22;7779;49.596;11.070;2022-07-29T10:56:34;31.70;38.00
15359;DHT22;7779;49.596;11.070;2022-07-29T11:01:48;31.80;38.00
15359;DHT22;7779;49.596;11.070;2022-07-29T11:07:09;31.80;38.00
15359;DHT22;7779;49.596;11.070;2022-07-29T11:09:35;31.80;38.00
15359;DHT22;7779;49.596;11.070;2022-07-29T11:12:01;31.80;38.00
15359;DHT22;7779;49.596;11.070;2022-07-29T11:14:58;31.80;38.00
15359;DHT22;7779;49.596;11.070;2022-07-29T11:17:27;31.90;38.10
15359;DHT22;7779;49.596;11.070;2022-07-29T11:22:58;32.00;38.10
15359;DHT22;7779;49.596;11.070;2022-07-29T11:25:24;32.00;38.00
15359;DHT22;7779;49.596;11.070;2022-07-29T11:27:52;32.00;38.00
15359;DHT22;7779;49.596;11.070;2022-07-29T11:30:19;32.00;38.00
15359;DHT22;7779;49.596;11.070;2022-07-29T11:32:45;32.00;38.10
15359;DHT22;7779;49.596;11.070;2022-07-29T11:43:47;32.20;37.60
15359;DHT22;7779;49.596;11.070;2022-07-29T11:46:13;32.20;37.70
15359;DHT22;7779;49.596;11.070;2022-07-29T11:48:43;32.30;37.80
15359;DHT22;7779;49.596;11.070;2022-07-29T11:51:11;32.40;37.60
15359;DHT22;7779;49.596;11.070;2022-07-29T11:53:39;32.40;37.60
15359;DHT22;7779;49.596;11.070;2022-07-29T11:56:08;32.50;37.50
15359;DHT22;7779;49.596;11.070;2022-07-29T11:58:35;32.60;37.30
15359;DHT22;7779;49.596;11.070;2022-07-29T12:01:01;32.70;37.20
15359;DHT22;7779;49.596;11.070;2022-07-29T12:03:28;32.70;37.00
15359;DHT22;7779;49.596;11.070;2022-07-29T12:05:54;32.70;36.70
15359;DHT22;7779;49.596;11.070;2022-07-29T12:08:23;32.70;36.50
15359;DHT22;7779;49.596;11.070;2022-07-29T12:10:51;32.60;36.20
15359;DHT22;7779;49.596;11.070;2022-07-29T12:13:20;32.60;36.20
15359;DHT22;7779;49.596;11.070;2022-07-29T12:15:56;32.50;36.20
15359;DHT22;7779;49.596;11.070;2022-07-29T12:18:24;32.40;36.10
15359;DHT22;7779;49.596;11.070;2022-07-29T12:20:57;32.30;36.20
15359;DHT22;7779;49.596;11.070;2022-07-29T12:23:26;32.20;36.10
15359;DHT22;7779;49.596;11.070;2022-07-29T12:25:52;32.10;36.30
15359;DHT22;7779;49.596;11.070;2022-07-29T12:28:18;32.10;36.40
15359;DHT22;7779;49.596;11.070;2022-07-29T12:30:49;32.00;36.40
15359;DHT22;7779;49.596;11.070;2022-07-29T12:33:26;32.00;36.40
15359;DHT22;7779;49.596;11.070;2022-07-29T12:35:58;32.00;36.40
15359;DHT22;7779;49.596;11.070;2022-07-29T12:38:26;31.90;36.50
15359;DHT22;7779;49.596;11.070;2022-07-29T12:40:53;31.90;36.50
15359;DHT22;7779;49.596;11.070;2022-07-29T12:43:21;31.80;36.50
15359;DHT22;7779;49.596;11.070;2022-07-29T12:45:50;31.80;36.50
15359;DHT22;7779;49.596;11.070;2022-07-29T12:48:37;31.80;36.60
15359;DHT22;7779;49.596;11.070;2022-07-29T12:51:05;31.80;36.60
15359;DHT22;7779;49.596;11.070;2022-07-29T12:53:33;31.70;36.60
15359;DHT22;7779;49.596;11.070;2022-07-29T12:55:59;31.60;36.70
15359;DHT22;7779;49.596;11.070;2022-07-29T12:58:32;31.60;36.70
15359;DHT22;7779;49.596;11.070;2022-07-29T13:01:12;31.60;36.80
15359;DHT22;7779;49.596;11.070;2022-07-29T13:03:53;31.60;36.90
15359;DHT22;7779;49.596;11.070;2022-07-29T13:06:42;31.60;36.90
15359;DHT22;7779;49.596;11.070;2022-07-29T13:09:16;31.60;37.00
15359;DHT22;7779;49.596;11.070;2022-07-29T13:11:52;31.60;37.10
15359;DHT22;7779;49.596;11.070;2022-07-29T13:14:33;31.60;37.00
15359;DHT22;7779;49.596;11.070;2022-07-29T13:19:37;31.60;37.00
15359;DHT22;7779;49.596;11.070;2022-07-29T13:22:16;31.60;37.00
15359;DHT22;7779;49.596;11.070;2022-07-29T13:27:18;31.50;37.00
15359;DHT22;7779;49.596;11.070;2022-07-29T13:29:46;31.50;37.10
15359;DHT22;7779;49.596;11.070;2022-07-29T13:32:12;31.50;37.20
15359;DHT22;7779;49.596;11.070;2022-07-29T13:34:39;31.60;37.20
15359;DHT22;7779;49.596;11.070;2022-07-29T13:37:06;31.60;37.20
15359;DHT22;7779;49.596;11.070;2022-07-29T13:39:32;31.60;37.10
15359;DHT22;7779;49.596;11.070;2022-07-29T13:41:58;31.60;36.90
15359;DHT22;7779;49.596;11.070;2022-07-29T13:44:23;31.60;36.90
15359;DHT22;7779;49.596;11.070;2022-07-29T13:46:49;31.70;36.90
15359;DHT22;7779;49.596;11.070;2022-07-29T13:49:16;31.70;36.80
15359;DHT22;7779;49.596;11.070;2022-07-29T13:51:42;31.70;36.70
15359;DHT22;7779;49.596;11.070;2022-07-29T13:54:08;31.80;36.60
15359;DHT22;7779;49.596;11.070;2022-07-29T13:56:34;31.80;36.60
15359;DHT22;7779;49.596;11.070;2022-07-29T13:59:00;31.70;36.70
15359;DHT22;7779;49.596;11.070;2022-07-29T14:01:26;31.70;36.70
15359;DHT22;7779;49.596;11.070;2022-07-29T14:03:53;31.60;36.70
15359;DHT22;7779;49.596;11.070;2022-07-29T14:06:18;31.60;36.80
15359;DHT22;7779;49.596;11.070;2022-07-29T14:08:44;31.40;36.70
15359;DHT22;7779;49.596;11.070;2022-07-29T14:11:10;31.30;36.70
15359;DHT22;7779;49.596;11.070;2022-07-29T14:13:36;31.10;37.30
15359;DHT22;7779;49.596;11.070;2022-07-29T14:16:02;30.80;37.80
15359;DHT22;7779;49.596;11.070;2022-07-29T14:18:28;30.40;38.30
15359;DHT22;7779;49.596;11.070;2022-07-29T14:20:54;29.90;39.00
15359;DHT22;7779;49.596;11.070;2022-07-29T14:23:20;29.30;38.80
15359;DHT22;7779;49.596;11.070;2022-07-29T14:25:46;28.70;40.20
15359;DHT22;7779;49.596;11.070;2022-07-29T14:28:12;28.00;40.90
15359;DHT22;7779;49.596;11.070;2022-07-29T14:30:38;27.30;41.90
15359;DHT22;7779;49.596;11.070;2022-07-29T14:33:05;26.70;42.80
15359;DHT22;7779;49.596;11.070;2022-07-29T14:35:31;25.70;44.20
15359;DHT22;7779;49.596;11.070;2022-07-29T14:37:57;25.30;44.80
15359;DHT22;7779;49.596;11.070;2022-07-29T14:40:23;24.60;45.90
15359;DHT22;7779;49.596;11.070;2022-07-29T14:42:49;24.00;47.00
15359;DHT22;7779;49.596;11.070;2022-07-29T14:45:14;23.60;48.10
15359;DHT22;7779;49.596;11.070;2022-07-29T14:47:40;23.10;49.30
15359;DHT22;7779;49.596;11.070;2022-07-29T14:50:07;22.70;53.40
15359;DHT22;7779;49.596;11.070;2022-07-29T14:52:35;22.40;51.70
15359;DHT22;7779;49.596;11.070;2022-07-29T14:55:02;22.10;52.00
15359;DHT22;7779;49.596;11.070;2022-07-29T14:57:28;21.90;53.00
15359;DHT22;7779;49.596;11.070;2022-07-29T14:59:55;21.70;53.80
15359;DHT22;7779;49.596;11.070;2022-07-29T15:02:21;21.40;54.80
15359;DHT22;7779;49.596;11.070;2022-07-29T15:04:47;21.30;55.50
15359;DHT22;7779;49.596;11.070;2022-07-29T15:07:14;21.20;56.30
15359;DHT22;7779;49.596;11.070;2022-07-29T15:09:41;21.00;58.60
15359;DHT22;7779;49.596;11.070;2022-07-29T15:12:08;21.00;57.50
15359;DHT22;7779;49.596;11.070;2022-07-29T15:14:36;20.90;58.10
15359;DHT22;7779;49.596;11.070;2022-07-29T15:17:02;20.80;58.50
15359;DHT22;7779;49.596;11.070;2022-07-29T15:19:28;20.80;59.30
15359;DHT22;7779;49.596;11.070;2022-07-29T15:21:54;20.70;59.80
15359;DHT22;7779;49.596;11.070;2022-07-29T15:24:20;20.70;60.50
15359;DHT22;7779;49.596;11.070;2022-07-29T15:26:47;20.70;61.20
15359;DHT22;7779;49.596;11.070;2022-07-29T15:29:14;20.60;61.60
15359;DHT22;7779;49.596;11.070;2022-07-29T15:31:40;20.60;61.50
15359;DHT22;7779;49.596;11.070;2022-07-29T15:34:06;20.60;61.90
15359;DHT22;7779;49.596;11.070;2022-07-29T15:36:32;20.50;62.10
15359;DHT22;7779;49.596;11.070;2022-07-29T15:38:58;20.50;62.80
15359;DHT22;7779;49.596;11.070;2022-07-29T15:41:24;20.50;63.40
15359;DHT22;7779;49.596;11.070;2022-07-29T15:43:50;20.50;64.00
15359;DHT22;7779;49.596;11.070;2022-07-29T15:46:18;20.50;64.70
15359;DHT22;7779;49.596;11.070;2022-07-29T15:49:05;20.50;65.50
15359;DHT22;7779;49.596;11.070;2022-07-29T15:51:32;20.50;65.50
15359;DHT22;7779;49.596;11.070;2022-07-29T15:53:58;20.60;66.00
15359;DHT22;7779;49.596;11.070;2022-07-29T15:56:27;20.60;66.30
15359;DHT22;7779;49.596;11.070;2022-07-29T15:58:52;20.60;68.80
15359;DHT22;7779;49.596;11.070;2022-07-29T16:01:18;20.60;67.10
15359;DHT22;7779;49.596;11.070;2022-07-29T16:03:44;20.60;67.30
15359;DHT22;7779;49.596;11.070;2022-07-29T16:06:10;20.60;67.70
15359;DHT22;7779;49.596;11.070;2022-07-29T16:08:37;20.60;68.10
15359;DHT22;7779;49.596;11.070;2022-07-29T16:11:04;20.60;67.90
15359;DHT22;7779;49.596;11.070;2022-07-29T16:13:30;20.60;67.80
15359;DHT22;7779;49.596;11.070;2022-07-29T16:15:56;20.60;67.80